ADDS METAR Data INFO
IDs: Format: Raw Decoded Include TAF

Data at: 1046 UTC 19 Oct 2017

KMQY 190956Z AUTO 00000KT 10SM CLR 06/05 A3027 RMK AO2 SLP201 T00610050
KMQY 190856Z AUTO 17003KT 9SM CLR 06/06 A3025 RMK AO2 SLP190 T00560056 50001
KMQY 190756Z AUTO 00000KT 10SM CLR 06/06 A3026 RMK AO2 SLP193 T00610056
KMQY 190656Z AUTO 13003KT 10SM CLR 07/07 A3025 RMK AO2 SLP189 T00670067
KMQY 190556Z AUTO 00000KT 10SM CLR 08/07 A3025 RMK AO2 SLP189 T00780072 10139 20067 402280033 58002
KMQY 190456Z AUTO 16003KT 10SM CLR 08/07 A3025 RMK AO2 SLP191 T00830072
KMQY 190356Z AUTO 15003KT 10SM CLR 08/07 A3026 RMK AO2 SLP200 T00780067
KMQY 190256Z AUTO 00000KT 10SM CLR 09/07 A3026 RMK AO2 SLP202 T00940072 51005
KMQY 190156Z 00000KT 10SM CLR 11/08 A3025 RMK AO2 SLP209 T01060078
KMQY 190056Z 00000KT 10SM CLR 13/08 A3025 RMK AO2 SLP213 T01280078
KMQY 182356Z 00000KT 10SM CLR 13/08 A3024 RMK AO2 SLP214 T01280078 10228 20122 55000
KMQY 182256Z 18003KT 10SM CLR 19/06 A3024 RMK AO2 SLP196 T01940061
KMQY 182156Z 16005KT 10SM CLR 22/05 A3023 RMK AO2 SLP189 T02170050
KMQY 182056Z VRB04KT 10SM CLR 23/06 A3024 RMK AO2 SLP188 T02280056 56021
KMQY 181956Z VRB04KT 10SM CLR 22/06 A3025 RMK AO2 SLP193 T02220061
KMQY 181856Z VRB05KT 10SM CLR 22/06 A3027 RMK AO2 SLP200 T02170061
KMQY 181756Z 20004KT 10SM CLR 21/07 A3030 RMK AO2 SLP213 T02060067 10211 20039 58020
KMQY 181656Z VRB03KT 10SM CLR 19/08 A3034 RMK AO2 SLP228 T01940078
KMQY 181556Z 19006KT 10SM CLR 18/08 A3035 RMK AO2 SLP238 T01780078
KMQY 181456Z 09003KT 10SM CLR 14/09 A3036 RMK AO2 SLP250 T01440089 51015
KMQY 181356Z 00000KT 10SM CLR 10/08 A3036 RMK AO2 SLP253 T01000078
KMQY 181256Z 00000KT 10SM CLR 06/06 A3034 RMK AO2 SLP251 T00560056
KMQY 181156Z 00000KT 10SM CLR 04/04 A3032 RMK AO2 SLP242 T00390039 10067 20033 51010
KMQY 181056Z AUTO 00000KT 10SM CLR 04/04 A3032 RMK AO2 SLP234 T00390039
KMQY 180956Z AUTO 14003KT 7SM CLR 04/04 A3030 RMK AO2 SLP218 T00390039
KMQY 180856Z AUTO 16003KT 10SM CLR 04/04 A3029 RMK AO2 SLP214 T00440044 53000
KMQY 180837Z AUTO 00000KT 3SM BR CLR 05/05 A3029 RMK AO2
KMQY 180829Z AUTO 00000KT 1 3/4SM BR CLR 04/04 A3029 RMK AO2 VIS 1/2V5
KMQY 180756Z AUTO 00000KT 10SM CLR 06/05 A3029 RMK AO2 SLP211 T00560050
KMQY 180656Z AUTO 00000KT 5SM BR CLR 06/05 A3028 RMK AO2 SLP210 T00560050
KMQY 180556Z AUTO 00000KT 10SM CLR 07/06 A3028 RMK AO2 SLP211 60000 T00670061 10139 20061 402060033 58003
KMQY 180456Z AUTO 00000KT 10SM CLR 07/07 A3029 RMK AO2 SLP213 T00720067
KMQY 180356Z AUTO 00000KT 10SM CLR 07/07 A3029 RMK AO2 RAB08E20 SLP218 P0000 T00720067
KMQY 180256Z AUTO 00000KT 10SM CLR 07/07 A3029 RMK AO2 SLP227 T00720067 53008
KMQY 180156Z 00000KT 10SM CLR 10/07 A3028 RMK AO2 SLP226 T01000072
KMQY 180056Z 00000KT 10SM CLR 12/08 A3028 RMK AO2 SLP227 T01170078
KMQY 172256Z 33003KT 10SM CLR 17/07 A3026 RMK AO2 SLP210 T01670067